山形空港の過去48時間の天気

山形空港 (Yamagata)

現在時刻: 8/18 22:32 JST (8/18 13:32 UTC) 以下の時間は現地時間です。

過去48時間のMETAR気象情報
時間 風向 風速(m/s) 視程 気温(℃) 湿度(%) 気圧(hPa) 天気現象
18 19:00 西南西 6 10km以上 25 69 1002
18 18:00 西北西 3 10km以上 25 74 1002
18 17:00 西南西 4 10km以上 27 66 1001
18 16:00 西南西 4 10km以上 28 70 1000
18 15:00 西 3 10km以上 26 84 1000
18 14:00 北西 2 10km以上 26 84 1000
18 13:00 不定 1 10km以上 26 84 1000
18 12:00 南南西 2 10km以上 24 94 1001
18 11:00 西南西 2 10km以上 23 94 1002 弱いしゅう雨
18 10:00 東南東 3 10km以上 23 94 1003 弱いしゅう雨
18 09:23 3 8000m 22 100 1003 弱いしゅう雨
18 09:00 3 6000m 22 100 1004 しゅう雨
18 08:00 静穏 0 6000m 22 94 1004 弱いしゅう雨
18 07:40 静穏 0 8000m 22 100 1004 弱いしゅう雨
17 19:00 4 10km以上 25 74 1010
17 18:00 4 10km以上 26 74 1010
17 17:00 5 10km以上 27 70 1009
17 16:00 5 10km以上 28 70 1009
17 15:00 4 10km以上 29 66 1008
17 14:00 5 10km以上 30 66 1009
17 13:00 3 10km以上 29 58 1009
17 12:00 4 10km以上 28 66 1009
17 11:00 不定 2 10km以上 28 74 1009
17 10:00 不定 1 10km以上 26 70 1010
17 09:00 不定 2 10km以上 26 74 1009
17 08:00 北北東 2 10km以上 24 83 1009
17 07:40 北北東 3 10km以上 24 83 1009
RJSC 181000Z 25011KT 220V280 9999 FEW030 SCT040 BKN050 25/19 Q1002
RJSC 180900Z 29005KT 250V330 9999 FEW030 SCT040 BKN050 25/20 Q1002
RJSC 180800Z 25008KT 220V280 9999 FEW020 SCT030 BKN040 27/20 Q1001
RJSC 180700Z 24007KT 200V280 9999 FEW020 SCT120 28/22 Q1000
RJSC 180600Z 28005KT 9999 FEW020 SCT030 BKN040 26/23 Q1000
RJSC 180500Z 32004KT 280V360 9999 FEW020 SCT035 BKN050 26/23 Q1000
RJSC 180400Z VRB02KT 9999 FEW020 SCT030 BKN050 26/23 Q1000
RJSC 180300Z 20003KT 140V260 9999 FEW005 SCT020 BKN050 24/23 Q1001
RJSC 180200Z 25004KT 220V290 9999 -SHRA FEW005 SCT020 BKN050 23/22 Q1002
RJSC 180100Z 12005KT 9999 -SHRA FEW005 SCT020 BKN040 23/22 Q1003
RJSC 180023Z 08005KT 050V110 8000 -SHRA FEW002 SCT020 BKN030 22/22 Q1003 RMK 1ST002 3CU020 7CU030 A2964
RJSC 180000Z 01005KT 330V040 6000 SHRA FEW002 SCT010 BKN025 22/22 Q1004
RJSC 172300Z 00000KT 6000 -SHRA FEW002 SCT020 BKN040 22/21 Q1004
RJSC 172240Z 00000KT 8000 -SHRA FEW003 SCT020 BKN040 22/22 Q1004 RMK 1ST003 3CU020 7CU040 A2967
RJSC 171000Z 09008KT 9999 FEW020 SCT040 BKN050 25/20 Q1010
RJSC 170900Z 10008KT 9999 FEW020 SCT035 BKN045 26/21 Q1010
RJSC 170800Z 10009KT 9999 FEW030 SCT040 BKN050 27/21 Q1009
RJSC 170700Z 36009KT 9999 FEW030 SCT050 BKN100 28/22 Q1009
RJSC 170600Z 35008KT 9999 FEW030 SCT100 BKN/// 29/22 Q1008
RJSC 170500Z 35009KT 9999 FEW030 BKN/// 30/23 Q1009
RJSC 170400Z 35006KT 290V020 9999 FEW040 SCT050 BKN/// 29/20 Q1009
RJSC 170300Z 36007KT 330V040 9999 FEW030 SCT040 BKN/// 28/21 Q1009
RJSC 170200Z VRB03KT 9999 FEW025 SCT040 BKN/// 28/23 Q1009
RJSC 170100Z VRB02KT 9999 FEW025 SCT040 BKN/// 26/20 Q1010
RJSC 170000Z VRB03KT 9999 FEW015 SCT030 BKN/// 26/21 Q1009
RJSC 162300Z 02003KT 320V050 9999 FEW010 SCT020 BKN/// 24/21 Q1009
RJSC 162240Z 02005KT 9999 FEW010 SCT020 BKN/// 24/21 Q1009 RMK 1ST010 3CU020 A2980